createdAt,value
2018-04-25T00:01:36.487Z,73.30
2018-04-25T00:04:04.857Z,73.60
2018-04-25T00:06:32.457Z,73.60
2018-04-25T00:09:00.872Z,74.50
2018-04-25T00:11:28.542Z,74.50
2018-04-25T00:13:56.255Z,74.70
2018-04-25T00:16:24.657Z,75.20
2018-04-25T00:18:52.322Z,75.10
2018-04-25T00:21:19.984Z,75.40
2018-04-25T00:23:47.590Z,75.20
2018-04-25T00:26:15.208Z,75.50
2018-04-25T00:28:42.942Z,75.70
2018-04-25T00:31:11.380Z,77.00
2018-04-25T00:33:39.005Z,76.90
2018-04-25T00:36:06.626Z,76.50
2018-04-25T00:38:35.025Z,76.50
2018-04-25T00:41:03.432Z,76.50
2018-04-25T00:43:31.071Z,76.50
2018-04-25T00:45:58.766Z,76.40
2018-04-25T00:48:26.992Z,76.90
2018-04-25T00:50:55.380Z,77.30
2018-04-25T00:53:23.724Z,77.50
2018-04-25T00:55:52.943Z,77.40
2018-04-25T00:58:21.347Z,77.80
2018-04-25T01:00:49.040Z,77.70
2018-04-25T01:03:16.715Z,77.60
2018-04-25T01:05:44.356Z,77.30
2018-04-25T01:08:12.021Z,77.70
2018-04-25T01:10:40.615Z,77.70
2018-04-25T01:13:09.061Z,77.80
2018-04-25T01:15:36.758Z,77.80
2018-04-25T01:18:04.369Z,78.40
2018-04-25T01:20:32.049Z,78.90
2018-04-25T01:22:59.657Z,78.50
2018-04-25T01:25:27.323Z,78.60
2018-04-25T01:31:04.283Z,78.30
2018-04-25T01:33:38.496Z,78.90
2018-04-25T01:36:09.166Z,79.00
2018-04-25T01:38:37.768Z,78.90
2018-04-25T01:41:10.009Z,79.30
2018-04-25T01:43:37.663Z,79.20
2018-04-25T01:46:08.046Z,79.80
2018-04-25T01:48:37.677Z,80.50
2018-04-25T01:51:04.854Z,80.10
2018-04-25T01:53:44.377Z,80.70
2018-04-25T01:56:24.005Z,80.50
2018-04-25T01:59:03.441Z,80.40
2018-04-25T02:01:30.615Z,80.00
2018-04-25T02:03:59.105Z,79.90
2018-04-25T02:06:26.731Z,79.90
2018-04-25T02:08:54.466Z,79.80
2018-04-25T02:11:22.047Z,79.80
2018-04-25T02:13:49.633Z,79.70
2018-04-25T02:16:18.163Z,79.80
2018-04-25T02:18:45.783Z,79.40
2018-04-25T02:21:13.419Z,80.00
2018-04-25T02:23:41.072Z,80.00
2018-04-25T02:26:08.694Z,80.00
2018-04-25T02:28:37.052Z,80.00
2018-04-25T02:31:06.181Z,80.00
2018-04-25T02:33:34.388Z,80.00
2018-04-25T02:36:03.540Z,80.30
2018-04-25T02:38:31.160Z,80.30
2018-04-25T02:40:58.807Z,80.30
2018-04-25T02:43:26.399Z,80.50
2018-04-25T02:45:54.110Z,80.50
2018-04-25T02:48:21.702Z,79.70
2018-04-25T02:50:49.307Z,80.60
2018-04-25T02:53:17.699Z,80.60
2018-04-25T02:55:45.317Z,80.60
2018-04-25T02:58:12.965Z,80.50
2018-04-25T03:00:40.571Z,81.50
2018-04-25T03:03:08.205Z,80.70
2018-04-25T03:05:36.576Z,80.70
2018-04-25T03:08:04.186Z,80.60
2018-04-25T03:10:31.860Z,80.90
2018-04-25T03:12:59.550Z,80.50
2018-04-25T03:15:27.158Z,80.80
2018-04-25T03:17:54.751Z,80.70
2018-04-25T03:20:22.984Z,81.00
2018-04-25T03:22:50.639Z,81.10
2018-04-25T03:25:18.370Z,80.70
2018-04-25T03:27:45.948Z,80.60
2018-04-25T03:30:14.312Z,80.80
2018-04-25T03:32:41.947Z,80.70
2018-04-25T03:35:09.631Z,80.30
2018-04-25T03:37:37.995Z,80.20
2018-04-25T03:40:06.542Z,80.20
2018-04-25T03:42:34.142Z,80.60
2018-04-25T03:45:01.759Z,80.60
2018-04-25T03:47:29.430Z,80.40
2018-04-25T03:49:57.047Z,80.40
2018-04-25T03:52:25.472Z,80.10
2018-04-25T03:54:53.093Z,80.10
2018-04-25T03:57:20.720Z,80.30
2018-04-25T03:59:48.319Z,80.10
2018-04-25T04:02:16.698Z,79.90
2018-04-25T04:04:44.319Z,79.90
2018-04-25T04:07:11.966Z,79.80
2018-04-25T04:09:39.614Z,79.70
2018-04-25T04:12:07.274Z,80.00
2018-04-25T04:14:34.909Z,79.70
2018-04-25T04:17:02.503Z,80.80
2018-04-25T04:19:30.128Z,79.80
2018-04-25T04:21:57.832Z,79.70
2018-04-25T04:24:25.521Z,80.40
2018-04-25T04:26:53.873Z,80.00
2018-04-25T04:29:21.483Z,79.90
2018-04-25T04:31:49.147Z,79.80
2018-04-25T04:34:16.779Z,79.70
2018-04-25T04:36:45.151Z,79.70
2018-04-25T04:39:12.759Z,79.60
2018-04-25T04:41:40.364Z,78.90
2018-04-25T04:44:07.966Z,78.70
2018-04-25T04:46:35.568Z,78.90
2018-04-25T04:49:03.174Z,78.70
2018-04-25T04:51:31.561Z,78.90
2018-04-25T04:53:59.239Z,78.90
2018-04-25T04:56:26.860Z,78.80
2018-04-25T04:58:55.295Z,78.50
2018-04-25T05:01:22.884Z,78.40
2018-04-25T05:03:50.513Z,78.70
2018-04-25T05:06:18.153Z,78.60
2018-04-25T05:08:45.875Z,78.60
2018-04-25T05:11:14.180Z,77.90
2018-04-25T05:13:41.805Z,77.70
2018-04-25T05:16:10.939Z,78.10
2018-04-25T05:18:38.557Z,77.90
2018-04-25T05:21:06.959Z,76.50
2018-04-25T05:23:35.335Z,76.80
2018-04-25T05:26:03.692Z,76.40
2018-04-25T05:28:32.926Z,76.30
2018-04-25T05:31:00.545Z,76.30
2018-04-25T05:33:28.139Z,75.50
2018-04-25T05:35:56.545Z,75.60
2018-04-25T05:38:24.198Z,75.60
2018-04-25T05:40:51.813Z,75.70
2018-04-25T05:43:19.432Z,75.80
2018-04-25T05:45:47.020Z,75.70
2018-04-25T05:48:14.600Z,76.00
2018-04-25T05:50:42.249Z,76.00
2018-04-25T05:53:09.881Z,76.70
2018-04-25T05:55:37.502Z,76.40
2018-04-25T05:58:05.896Z,76.90
2018-04-25T06:00:33.513Z,76.90
2018-04-25T06:03:01.123Z,76.70
2018-04-25T06:05:28.708Z,77.20
2018-04-25T06:07:56.297Z,76.50
2018-04-25T06:10:23.905Z,76.30
2018-04-25T06:12:51.487Z,76.40
2018-04-25T06:15:20.998Z,76.00
2018-04-25T06:17:48.611Z,75.20
2018-04-25T06:20:16.290Z,75.10
2018-04-25T06:22:43.869Z,74.80
2018-04-25T06:25:11.491Z,74.20
2018-04-25T06:27:39.114Z,74.10
2018-04-25T06:30:06.759Z,73.80
2018-04-25T06:32:34.355Z,74.70
2018-04-25T06:35:02.731Z,73.70
2018-04-25T06:37:31.112Z,73.30
2018-04-25T06:39:59.556Z,73.00
2018-04-25T06:42:27.142Z,73.00
2018-04-25T06:44:55.540Z,73.30
2018-04-25T06:47:26.477Z,73.20
2018-04-25T06:49:54.080Z,72.50
2018-04-25T06:52:22.292Z,72.10
2018-04-25T06:54:51.814Z,71.40
2018-04-25T06:57:19.468Z,71.40
2018-04-25T06:59:48.697Z,71.40
2018-04-25T07:02:16.357Z,71.40
2018-04-25T07:04:44.020Z,70.60
2018-04-25T07:07:11.708Z,70.80
2018-04-25T07:09:39.312Z,70.10
2018-04-25T07:12:07.766Z,71.20
2018-04-25T07:14:35.521Z,71.20
2018-04-25T07:17:05.964Z,70.90
2018-04-25T07:19:33.584Z,71.40
2018-04-25T07:22:01.223Z,71.20
2018-04-25T07:24:28.830Z,70.60
2018-04-25T07:26:56.464Z,70.40
2018-04-25T07:29:24.148Z,70.30
2018-04-25T07:31:51.872Z,70.10
2018-04-25T07:34:20.515Z,69.70
2018-04-25T07:36:48.877Z,69.10
2018-04-25T07:39:16.583Z,68.90
2018-04-25T07:41:45.030Z,68.80
2018-04-25T07:44:12.628Z,68.70
2018-04-25T07:46:40.288Z,68.70
2018-04-25T07:49:07.966Z,68.10
2018-04-25T07:51:35.565Z,68.30
2018-04-25T07:54:03.968Z,68.30
2018-04-25T07:56:32.308Z,67.80
2018-04-25T07:58:59.882Z,67.80
2018-04-25T08:01:27.556Z,67.70
2018-04-25T08:03:55.941Z,67.40
2018-04-25T08:06:24.285Z,67.30
2018-04-25T08:08:51.901Z,67.10
2018-04-25T08:11:19.526Z,66.80
2018-04-25T08:14:00.456Z,66.20
2018-04-25T08:16:40.138Z,66.20
2018-04-25T08:19:19.659Z,65.30
2018-04-25T08:21:48.756Z,63.50
2018-04-25T08:24:16.369Z,63.50
2018-04-25T08:26:44.030Z,63.00
2018-04-25T08:29:11.662Z,62.30
2018-04-25T08:31:40.046Z,62.20
2018-04-25T08:34:08.674Z,62.00
2018-04-25T08:36:36.262Z,61.90
2018-04-25T08:39:03.850Z,62.00
2018-04-25T08:41:32.988Z,62.90
2018-04-25T08:44:01.368Z,63.00
2018-04-25T08:46:28.988Z,62.90
2018-04-25T08:48:56.604Z,62.50
2018-04-25T08:51:24.220Z,61.90
2018-04-25T08:53:52.174Z,62.10
2018-04-25T08:56:20.621Z,61.00
2018-04-25T08:58:48.242Z,60.90
2018-04-25T09:01:15.922Z,60.90
2018-04-25T09:03:43.543Z,60.10
2018-04-25T09:06:11.237Z,59.20
2018-04-25T09:08:38.835Z,58.90
2018-04-25T09:11:06.816Z,58.20
2018-04-25T09:13:35.233Z,58.00
2018-04-25T09:16:02.813Z,58.00
2018-04-25T09:18:30.438Z,57.60
2018-04-25T09:20:58.070Z,57.20
2018-04-25T09:23:25.659Z,56.60
2018-04-25T09:25:53.249Z,56.80
2018-04-25T09:28:20.920Z,56.60
2018-04-25T09:30:48.515Z,56.00
2018-04-25T09:33:16.891Z,55.80
2018-04-25T09:35:45.319Z,55.10
2018-04-25T09:38:12.978Z,55.10
2018-04-25T09:40:40.568Z,54.50
2018-04-25T09:43:08.563Z,53.90
2018-04-25T09:45:36.928Z,53.00
2018-04-25T09:48:04.529Z,53.00
2018-04-25T09:50:32.157Z,54.20
2018-04-25T09:53:00.586Z,54.30
2018-04-25T09:55:28.420Z,54.30
2018-04-25T09:57:56.602Z,54.60
2018-04-25T10:00:29.902Z,53.60
2018-04-25T10:02:57.517Z,53.70
2018-04-25T10:05:25.887Z,53.20
2018-04-25T10:07:53.632Z,53.10
2018-04-25T10:10:21.262Z,52.60
2018-04-25T10:12:49.671Z,52.40
2018-04-25T10:15:17.388Z,52.10
2018-04-25T10:17:44.921Z,52.00
2018-04-25T10:20:12.510Z,52.00
2018-04-25T10:22:40.121Z,52.10
2018-04-25T10:25:07.743Z,51.40
2018-04-25T10:27:35.391Z,51.10
2018-04-25T10:30:04.769Z,51.30
2018-04-25T10:32:33.139Z,50.30
2018-04-25T10:35:00.745Z,50.20
2018-04-25T10:37:28.359Z,50.30
2018-04-25T10:39:56.748Z,51.40
2018-04-25T10:42:25.096Z,52.10
2018-04-25T10:44:52.716Z,52.10
2018-04-25T10:47:20.713Z,52.30
2018-04-25T10:49:48.353Z,52.00
2018-04-25T10:52:15.951Z,52.20
2018-04-25T10:54:43.643Z,52.10
2018-04-25T10:57:11.268Z,52.00
2018-04-25T10:59:38.972Z,51.60
2018-04-25T11:02:06.720Z,52.40
2018-04-25T11:04:34.347Z,52.30
2018-04-25T11:07:01.956Z,52.80
2018-04-25T11:09:29.584Z,58.90
2018-04-25T11:11:57.164Z,64.30
2018-04-25T11:14:25.545Z,88.00
2018-04-25T11:16:53.986Z,93.10
2018-04-25T11:19:21.606Z,93.20
2018-04-25T11:21:49.288Z,94.40
2018-04-25T11:24:17.036Z,95.00
2018-04-25T11:26:44.651Z,94.90
2018-04-25T11:29:12.874Z,95.30
2018-04-25T11:31:40.496Z,95.40
2018-04-25T11:34:09.025Z,96.30
2018-04-25T11:36:36.657Z,96.20
2018-04-25T11:39:04.317Z,96.40
2018-04-25T11:41:31.969Z,96.80
2018-04-25T11:44:00.963Z,96.20
2018-04-25T11:46:29.351Z,96.20
2018-04-25T11:48:56.990Z,96.20
2018-04-25T11:51:25.396Z,95.10
2018-04-25T11:53:53.028Z,95.10
2018-04-25T11:56:21.411Z,93.50
2018-04-25T11:58:49.795Z,93.50
2018-04-25T12:01:18.696Z,92.10
2018-04-25T12:03:46.326Z,92.10
2018-04-25T12:06:13.927Z,92.40
2018-04-25T12:08:41.573Z,90.70
2018-04-25T12:11:09.225Z,90.60
2018-04-25T12:13:37.644Z,88.80
2018-04-25T12:16:05.273Z,88.90
2018-04-25T12:18:32.870Z,88.10
2018-04-25T12:21:00.481Z,81.50
2018-04-25T12:23:29.433Z,76.30
2018-04-25T12:25:57.098Z,76.30
2018-04-25T12:28:24.746Z,74.10
2018-04-25T12:30:52.370Z,73.00
2018-04-25T12:33:20.003Z,68.40
2018-04-25T12:35:48.392Z,66.80
2018-04-25T12:38:16.004Z,66.70
2018-04-25T12:40:43.667Z,70.30
2018-04-25T12:43:11.909Z,71.00
2018-04-25T12:45:39.502Z,70.40
2018-04-25T12:48:07.181Z,68.20
2018-04-25T12:50:34.840Z,62.70
2018-04-25T12:53:02.488Z,59.40
2018-04-25T12:55:30.121Z,58.50
2018-04-25T12:57:58.445Z,55.10
2018-04-25T13:00:26.038Z,53.10
2018-04-25T13:02:54.513Z,54.70
2018-04-25T13:05:22.920Z,54.90
2018-04-25T13:07:50.525Z,54.90
2018-04-25T13:10:18.163Z,54.30
2018-04-25T13:12:45.828Z,53.60
2018-04-25T13:15:13.494Z,52.80
2018-04-25T13:17:41.105Z,49.10
2018-04-25T13:20:08.790Z,48.60
2018-04-25T13:22:36.404Z,45.50
2018-04-25T13:25:04.816Z,47.30
2018-04-25T13:27:32.471Z,47.30
2018-04-25T13:30:00.114Z,47.70
2018-04-25T13:32:28.536Z,46.10
2018-04-25T13:34:56.151Z,45.60
2018-04-25T13:37:24.493Z,43.90
2018-04-25T13:39:52.062Z,43.80
2018-04-25T13:42:19.709Z,42.10
2018-04-25T13:44:47.386Z,41.30
2018-04-25T13:47:15.025Z,41.10
2018-04-25T13:49:42.672Z,40.10
2018-04-25T13:52:10.295Z,39.30
2018-04-25T13:54:38.696Z,38.30
2018-04-25T13:57:06.316Z,38.30
2018-04-25T13:59:34.704Z,37.50
2018-04-25T14:02:03.104Z,36.70
2018-04-25T14:04:30.751Z,36.70
2018-04-25T14:06:58.449Z,35.80
2018-04-25T14:09:26.059Z,36.10
2018-04-25T14:11:54.712Z,36.20
2018-04-25T14:14:22.347Z,36.20
2018-04-25T14:16:50.201Z,35.30
2018-04-25T14:19:17.903Z,34.80
2018-04-25T14:21:45.852Z,33.70
2018-04-25T14:24:13.514Z,34.50
2018-04-25T14:26:41.195Z,34.60
2018-04-25T14:29:08.938Z,35.90
2018-04-25T14:31:36.625Z,37.40
2018-04-25T14:34:04.273Z,38.40
2018-04-25T14:36:31.948Z,38.70
2018-04-25T14:38:59.563Z,37.30
2018-04-25T14:41:27.232Z,36.40
2018-04-25T14:43:55.468Z,34.70
2018-04-25T14:46:23.899Z,35.80
2018-04-25T14:48:51.577Z,35.80
2018-04-25T14:51:19.191Z,37.50
2018-04-25T14:53:46.768Z,39.10
2018-04-25T14:56:14.412Z,39.60
2018-04-25T14:58:42.032Z,38.70
2018-04-25T15:01:10.449Z,38.80
2018-04-25T15:03:38.043Z,38.80
2018-04-25T15:06:05.709Z,40.10
2018-04-25T15:08:34.364Z,40.70
2018-04-25T15:11:02.731Z,40.50
2018-04-25T15:13:30.366Z,39.90
2018-04-25T15:15:58.924Z,37.00
2018-04-25T15:18:26.537Z,37.00
2018-04-25T15:20:54.204Z,36.40
2018-04-25T15:23:21.874Z,35.30
2018-04-25T15:25:49.499Z,35.40
2018-04-25T15:28:18.644Z,38.20
2018-04-25T15:30:46.282Z,38.20
2018-04-25T15:33:13.909Z,37.00
2018-04-25T15:35:42.393Z,38.80
2018-04-25T15:38:10.120Z,38.70
2018-04-25T15:40:37.728Z,37.70
2018-04-25T15:43:06.452Z,35.00
2018-04-25T15:45:34.124Z,35.00
2018-04-25T15:48:01.806Z,34.30
2018-04-25T15:50:30.841Z,33.80
2018-04-25T15:52:58.504Z,33.10
2018-04-25T15:55:26.236Z,32.70
2018-04-25T15:57:53.845Z,32.70
2018-04-25T16:00:21.517Z,34.10
2018-04-25T16:02:49.100Z,35.60
2018-04-25T16:05:17.485Z,37.60
2018-04-25T16:07:45.126Z,37.60
2018-04-25T16:10:12.740Z,39.60
2018-04-25T16:12:40.345Z,41.20
2018-04-25T16:15:08.169Z,41.90
2018-04-25T16:17:35.782Z,42.40
2018-04-25T16:20:04.921Z,43.20
2018-04-25T16:22:32.592Z,43.20
2018-04-25T16:25:00.215Z,43.30
2018-04-25T16:27:29.196Z,44.60
2018-04-25T16:29:57.155Z,44.20
2018-04-25T16:32:24.789Z,44.80
2018-04-25T16:34:52.413Z,45.20
2018-04-25T16:37:21.507Z,45.60
2018-04-25T16:39:49.913Z,45.60
2018-04-25T16:42:17.615Z,45.60
2018-04-25T16:44:45.207Z,45.70
2018-04-25T16:47:13.644Z,46.00
2018-04-25T16:49:41.297Z,46.00
2018-04-25T16:52:08.905Z,46.50
2018-04-25T16:54:38.669Z,47.30
2018-04-25T16:57:07.045Z,47.20
2018-04-25T16:59:35.466Z,47.70
2018-04-25T17:02:03.881Z,47.90
2018-04-25T17:04:31.605Z,47.90
2018-04-25T17:07:03.997Z,48.30
2018-04-25T17:09:31.746Z,48.20
2018-04-25T17:12:00.298Z,48.60
2018-04-25T17:14:27.970Z,48.60
2018-04-25T17:16:56.518Z,49.30
2018-04-25T17:19:25.067Z,49.20
2018-04-25T17:21:53.050Z,49.50
2018-04-25T17:24:21.301Z,49.80
2018-04-25T17:26:48.935Z,50.30
2018-04-25T17:29:16.572Z,50.60
2018-04-25T17:31:44.432Z,51.20
2018-04-25T17:34:12.122Z,52.10
2018-04-25T17:36:40.655Z,52.40
2018-04-25T17:39:09.997Z,52.50
2018-04-25T17:41:37.602Z,52.40
2018-04-25T17:44:06.054Z,53.20
2018-04-25T17:46:34.597Z,53.50
2018-04-25T17:49:02.202Z,53.50
2018-04-25T17:51:30.613Z,54.20
2018-04-25T17:53:58.264Z,54.10
2018-04-25T17:56:25.992Z,54.50
2018-04-25T17:58:54.415Z,55.00
2018-04-25T18:01:22.070Z,54.90
2018-04-25T18:03:49.680Z,55.10
2018-04-25T18:06:17.371Z,55.20
2018-04-25T18:08:46.202Z,55.40
2018-04-25T18:11:14.169Z,55.40
2018-04-25T18:13:41.848Z,55.60
2018-04-25T18:16:09.541Z,55.70
2018-04-25T18:18:37.264Z,56.00
2018-04-25T18:21:04.937Z,56.30
2018-04-25T18:23:32.547Z,56.50
2018-04-25T18:26:00.383Z,56.70
2018-04-25T18:28:29.435Z,58.10
2018-04-25T18:30:57.142Z,57.50
2018-04-25T18:33:25.603Z,58.50
2018-04-25T18:35:53.244Z,58.50
2018-04-25T18:38:20.850Z,59.10
2018-04-25T18:40:49.989Z,60.00
2018-04-25T18:43:17.683Z,59.90
2018-04-25T18:45:46.553Z,60.40
2018-04-25T18:48:14.976Z,61.20
2018-04-25T18:50:43.377Z,61.60
2018-04-25T18:53:11.047Z,61.60
2018-04-25T18:55:38.731Z,61.60
2018-04-25T18:58:06.367Z,61.60
2018-04-25T19:00:34.037Z,61.50
2018-04-25T19:03:02.029Z,61.80
2018-04-25T19:05:29.697Z,62.10
2018-04-25T19:07:57.348Z,62.20
2018-04-25T19:10:25.005Z,62.30
2018-04-25T19:12:53.813Z,62.60
2018-04-25T19:15:22.297Z,62.40
2018-04-25T19:17:49.982Z,62.40
2018-04-25T19:20:18.341Z,62.60
2018-04-25T19:22:45.956Z,62.50
2018-04-25T19:25:13.609Z,62.80
2018-04-25T19:27:41.629Z,62.90
2018-04-25T19:30:09.274Z,63.20
2018-04-25T19:32:37.738Z,63.10
2018-04-25T19:35:05.362Z,63.10
2018-04-25T19:37:33.673Z,63.00
2018-04-25T19:40:01.357Z,63.10
2018-04-25T19:42:28.975Z,63.10
2018-04-25T19:44:56.887Z,63.30
2018-04-25T19:47:24.600Z,63.40
2018-04-25T19:49:52.289Z,63.60
2018-04-25T19:52:19.930Z,63.90
2018-04-25T19:54:47.526Z,64.20
2018-04-25T19:57:15.666Z,64.20
2018-04-25T19:59:43.355Z,64.30
2018-04-25T20:02:11.013Z,64.70
2018-04-25T20:04:38.677Z,64.70
2018-04-25T20:07:07.000Z,65.40
2018-04-25T20:09:35.397Z,65.50
2018-04-25T20:12:03.060Z,65.50
2018-04-25T20:14:30.708Z,65.50
2018-04-25T20:16:58.792Z,65.20
2018-04-25T20:19:27.465Z,65.10
2018-04-25T20:21:55.839Z,64.90
2018-04-25T20:24:23.512Z,64.90
2018-04-25T20:26:51.161Z,64.90
2018-04-25T20:29:18.885Z,64.90
2018-04-25T20:31:46.523Z,64.90
2018-04-25T20:34:14.168Z,65.00
2018-04-25T20:36:41.769Z,65.50
2018-04-25T20:39:09.385Z,65.10
2018-04-25T20:41:37.046Z,65.30
2018-04-25T20:44:05.425Z,65.30
2018-04-25T20:46:33.050Z,65.60
2018-04-25T20:49:01.461Z,65.90
2018-04-25T20:51:29.124Z,65.80
2018-04-25T20:53:56.845Z,66.20
2018-04-25T20:56:25.205Z,66.70
2018-04-25T20:58:52.816Z,66.60
2018-04-25T21:01:20.817Z,66.80
2018-04-25T21:03:49.396Z,67.10
2018-04-25T21:06:16.984Z,67.10
2018-04-25T21:08:44.646Z,67.30
2018-04-25T21:11:12.357Z,67.10
2018-04-25T21:13:39.991Z,66.80
2018-04-25T21:16:08.384Z,66.00
2018-04-25T21:18:36.915Z,66.00
2018-04-25T21:21:04.552Z,66.00
2018-04-25T21:23:32.176Z,65.80
2018-04-25T21:26:00.529Z,65.30
2018-04-25T21:28:28.190Z,65.30
2018-04-25T21:30:56.419Z,65.20
2018-04-25T21:33:24.004Z,64.90
2018-04-25T21:35:51.690Z,65.00
2018-04-25T21:38:20.125Z,65.30
2018-04-25T21:40:47.820Z,65.30
2018-04-25T21:43:15.475Z,65.60
2018-04-25T21:45:43.152Z,66.10
2018-04-25T21:48:10.816Z,66.10
2018-04-25T21:50:38.483Z,66.50
2018-04-25T21:53:06.451Z,65.80
2018-04-25T21:55:34.942Z,66.60
2018-04-25T21:58:03.398Z,66.80
2018-04-25T22:00:31.314Z,66.70
2018-04-25T22:02:58.933Z,66.70
2018-04-25T22:05:26.554Z,66.80
2018-04-25T22:07:54.208Z,67.10
2018-04-25T22:10:21.959Z,67.20
2018-04-25T22:12:49.609Z,67.40
2018-04-25T22:15:17.612Z,67.60
2018-04-25T22:17:45.268Z,67.60
2018-04-25T22:20:12.972Z,68.00
2018-04-25T22:22:41.329Z,68.30
2018-04-25T22:25:09.941Z,68.20
2018-04-25T22:27:37.601Z,68.30
2018-04-25T22:30:06.025Z,68.40
2018-04-25T22:32:34.415Z,68.40
2018-04-25T22:35:02.032Z,68.50
2018-04-25T22:37:29.675Z,68.80
2018-04-25T22:39:58.080Z,68.90
2018-04-25T22:42:25.698Z,68.90
2018-04-25T22:44:53.470Z,68.90
2018-04-25T22:47:21.831Z,69.20
2018-04-25T22:49:50.285Z,69.00
2018-04-25T22:52:18.059Z,68.90
2018-04-25T22:54:45.693Z,68.90
2018-04-25T22:57:13.329Z,68.80
2018-04-25T22:59:41.538Z,68.80
2018-04-25T23:02:15.049Z,68.90
2018-04-25T23:04:42.698Z,68.80
2018-04-25T23:07:10.316Z,68.90
2018-04-25T23:09:38.693Z,69.00
2018-04-25T23:12:07.123Z,68.90
2018-04-25T23:14:34.722Z,68.90
2018-04-25T23:17:03.137Z,69.20
2018-04-25T23:19:30.799Z,69.20
2018-04-25T23:21:58.378Z,69.20
2018-04-25T23:24:25.957Z,69.60
2018-04-25T23:26:53.602Z,69.70
2018-04-25T23:29:21.188Z,69.70
2018-04-25T23:31:49.561Z,69.00
2018-04-25T23:34:18.685Z,69.10
2018-04-25T23:36:47.106Z,69.00
2018-04-25T23:39:14.767Z,68.90
2018-04-25T23:41:42.374Z,69.00
2018-04-25T23:44:10.782Z,68.90
2018-04-25T23:46:38.452Z,68.90
2018-04-25T23:49:06.113Z,68.80
2018-04-25T23:51:33.723Z,68.90
2018-04-25T23:54:01.352Z,68.90
2018-04-25T23:56:29.031Z,68.80
2018-04-25T23:58:57.013Z,68.80
